Irini — SYZA — position and weather

sailwx.info

Track history (hours):
 
Tides and Currents Weather Stations Pressure Air Temp Water Temp Dewpoint Dewpoint Depression Visibility Wind Speed Wind Dir Waves Ship Positions

Irini

Last reported at 2017-Apr-25 04:53 UTC. Time now 2017-Apr-25 16:32 UTC.
Position N 39°29' E 023°23'.

Length 137 m; draft 7.2 m.

Type: Ship (hazmat cat A). MMSI: 240052000.

Date/timePositionNaut miles runAvg speedWind from/ knotsBaromVisibWave heightAir tempDewpointWater temp
2017-Apr-25 04:53N 39°29' E 023°23'5110.4
2017-Apr-25 00:02N 38°50' E 024°04'58 9.6
2017-Apr-24 17:58N 37°57' E 024°35'5 9.7
2017-Apr-24 17:29N 37°53' E 024°31'5 9.8
2017-Apr-24 17:00N 37°50' E 024°27'5 9.8
2017-Apr-24 16:30N 37°47' E 024°22'5 9.7
2017-Apr-24 15:59N 37°43' E 024°17'9 9.8
2017-Apr-24 15:03N 37°38' E 024°08'4 9.1
2017-Apr-24 14:36N 37°36' E 024°03'1 9.7
2017-Apr-24 14:29N 37°36' E 024°02'9 9.6
2017-Apr-24 13:30N 37°38' E 023°50'510.3
2017-Apr-24 13:00N 37°40' E 023°44'510.3
2017-Apr-24 12:30N 37°44' E 023°40'510.3
2017-Apr-24 12:00N 37°49' E 023°38'510.2
2017-Apr-24 11:30N 37°54' E 023°37'4 7.4
2017-Apr-24 11:00N 37°57' E 023°35'4 7.2
2017-Apr-24 10:30N 38°01' E 023°34'1 2.3
2017-Apr-24 10:00N 38°01' E 023°34'2 4.6
2017-Apr-24 09:30N 38°01' E 023°32'0 0.0
2017-Apr-24 08:59N 38°01' E 023°32'0 0.0
2017-Apr-24 08:29N 38°01' E 023°32'0 0.1
2017-Apr-24 07:59N 38°01' E 023°32'0 0.1
2017-Apr-24 07:29N 38°01' E 023°32'0 0.0
2017-Apr-24 06:59N 38°01' E 023°32'0 0.1
2017-Apr-24 06:29N 38°01' E 023°32'0 0.0
2017-Apr-24 05:59N 38°01' E 023°32'0 0.1
2017-Apr-24 05:26N 38°01' E 023°32'0 0.1
2017-Apr-24 04:59N 38°01' E 023°32'0 0.0
2017-Apr-24 04:29N 38°01' E 023°32'0 0.1
2017-Apr-24 03:59N 38°01' E 023°32'0 0.1
2017-Apr-24 03:29N 38°01' E 023°32'0 0.0
2017-Apr-24 02:59N 38°01' E 023°32'0 0.1
2017-Apr-24 02:29N 38°01' E 023°32'0 0.0
2017-Apr-24 01:59N 38°01' E 023°32'0 0.1
2017-Apr-24 01:29N 38°01' E 023°32'0 0.0
2017-Apr-24 00:59N 38°01' E 023°32'0 0.1
2017-Apr-24 00:23N 38°01' E 023°32'0 0.1
2017-Apr-23 23:59N 38°01' E 023°32'0 0.0
2017-Apr-23 23:29N 38°01' E 023°32'0 0.0
2017-Apr-23 22:59N 38°01' E 023°32'0 0.3
2017-Apr-23 22:30N 38°01' E 023°32'1 2.4
2017-Apr-23 22:00N 38°02' E 023°30'0 0.5
2017-Apr-23 21:26N 38°02' E 023°31'0 0.0
2017-Apr-23 20:59N 38°02' E 023°31'0 0.0
2017-Apr-23 20:29N 38°02' E 023°31'0 0.0
2017-Apr-23 19:59N 38°02' E 023°31'0 0.0
2017-Apr-23 19:29N 38°02' E 023°31'0 0.0
2017-Apr-23 18:59N 38°02' E 023°31'0 0.0
2017-Apr-23 18:26N 38°02' E 023°31'0 0.0
2017-Apr-23 17:59N 38°02' E 023°31'0 0.0
2017-Apr-23 17:29N 38°02' E 023°31'0 0.0
2017-Apr-23 16:59N 38°02' E 023°31'0 0.0
2017-Apr-23 16:29N 38°02' E 023°31'0 0.0
2017-Apr-23 15:59N 38°02' E 023°31'0 0.0
2017-Apr-23 15:29N 38°02' E 023°31'0 0.0
2017-Apr-23 14:56N 38°02' E 023°31'0 0.0
2017-Apr-23 13:53N 38°02' E 023°31'0 0.0
2017-Apr-23 13:29N 38°02' E 023°31'0 0.0
2017-Apr-23 12:59N 38°02' E 023°31'0 0.0
2017-Apr-23 12:29N 38°02' E 023°31'0 0.0
2017-Apr-23 11:59N 38°02' E 023°31'0 0.0
2017-Apr-23 11:29N 38°02' E 023°31'0 0.0
2017-Apr-23 10:59N 38°02' E 023°31'0 0.0
2017-Apr-23 10:29N 38°02' E 023°31'0 0.0
2017-Apr-23 09:53N 38°02' E 023°31'0 0.0
2017-Apr-23 09:29N 38°02' E 023°31'0 0.0
2017-Apr-23 08:59N 38°02' E 023°31'0 0.0
2017-Apr-23 08:29N 38°02' E 023°31'0 0.0
2017-Apr-23 07:59N 38°02' E 023°31'0 0.0
2017-Apr-23 07:29N 38°02' E 023°31'0 0.0
2017-Apr-23 06:59N 38°02' E 023°31'0 0.0
2017-Apr-23 06:29N 38°02' E 023°31'0 0.0
2017-Apr-23 05:59N 38°02' E 023°31'0 0.0
2017-Apr-23 05:29N 38°02' E 023°31'0 0.0
2017-Apr-23 04:59N 38°02' E 023°31'0 0.0
2017-Apr-23 04:26N 38°02' E 023°31'0 0.0
2017-Apr-23 03:59N 38°02' E 023°31'0 0.0
2017-Apr-23 03:29N 38°02' E 023°31'0 0.0
2017-Apr-23 02:56N 38°02' E 023°31'0 0.0
2017-Apr-23 02:29N 38°02' E 023°31'0 0.0
2017-Apr-23 01:59N 38°02' E 023°31'0 0.0
2017-Apr-23 01:29N 38°02' E 023°31'0 0.0
2017-Apr-23 00:53N 38°02' E 023°31'0 0.0
2017-Apr-23 00:29N 38°02' E 023°31'0 0.0
2017-Apr-22 23:56N 38°02' E 023°31'0 0.0
2017-Apr-22 23:29N 38°02' E 023°31'0 0.0
2017-Apr-22 22:59N 38°02' E 023°31'0 0.0
2017-Apr-22 22:29N 38°02' E 023°31'0 0.0
2017-Apr-22 21:59N 38°02' E 023°31'0 0.0
2017-Apr-22 21:29N 38°02' E 023°31'0 0.0
2017-Apr-22 20:59N 38°02' E 023°31'0 0.0
2017-Apr-22 20:29N 38°02' E 023°31'0 0.0
2017-Apr-22 19:59N 38°02' E 023°31'0 0.0
2017-Apr-22 19:29N 38°02' E 023°31'0 0.0
2017-Apr-22 18:59N 38°02' E 023°31'0 0.0
2017-Apr-22 18:29N 38°02' E 023°31'0 0.0
2017-Apr-22 17:59N 38°02' E 023°31'0 0.0
2017-Apr-22 17:29N 38°02' E 023°31'0 0.0
2017-Apr-22 16:59N 38°02' E 023°31'0 0.0
2017-Apr-22 16:29N 38°02' E 023°31'0 0.0
2017-Apr-22 15:59N 38°02' E 023°31'0 0.0
2017-Apr-22 15:29N 38°02' E 023°31'0 0.0
2017-Apr-22 14:56N 38°02' E 023°31'0 0.0
2017-Apr-22 14:29N 38°02' E 023°31'0 0.0
2017-Apr-22 13:29N 38°02' E 023°31'0 0.0
2017-Apr-22 12:56N 38°02' E 023°31'0 0.0
2017-Apr-22 12:29N 38°02' E 023°31'0 0.0
2017-Apr-22 11:59N 38°02' E 023°31'0 0.0
2017-Apr-22 11:29N 38°02' E 023°31'0 0.0
2017-Apr-22 10:59N 38°02' E 023°31'0 0.0
2017-Apr-22 10:29N 38°02' E 023°31'0 0.0
2017-Apr-22 09:59N 38°02' E 023°31'1 1.1
2017-Apr-22 09:30N 38°02' E 023°31'1 2.8
2017-Apr-22 09:00N 38°01' E 023°32'4 8.2
2017-Apr-22 08:31N 37°57' E 023°34'3 6.6
2017-Apr-22 08:01N 37°54' E 023°35'0 0.8
2017-Apr-22 07:30N 37°54' E 023°35'0 0.9
2017-Apr-22 07:00N 37°53' E 023°35'0 0.2
2017-Apr-22 06:30N 37°53' E 023°35'0 0.8
2017-Apr-22 06:00N 37°54' E 023°35'1 1.4
2017-Apr-22 05:30N 37°53' E 023°35'0 0.4
2017-Apr-22 05:00N 37°53' E 023°35'1 1.7
2017-Apr-22 04:30N 37°52' E 023°35'0 0.8
2017-Apr-22 04:00N 37°52' E 023°35'1 1.8
2017-Apr-22 03:30N 37°52' E 023°36'4 8.3
2017-Apr-22 03:00N 37°49' E 023°40'4 8.5
2017-Apr-22 02:30N 37°45' E 023°42'4 8.8
2017-Apr-22 02:00N 37°41' E 023°45'4 8.5
2017-Apr-22 01:30N 37°38' E 023°49'4 9.0
2017-Apr-22 01:00N 37°35' E 023°53'4 8.8
2017-Apr-22 00:30N 37°32' E 023°57'4 8.7
2017-Apr-22 00:00N 37°30' E 024°02'5 8.9
2017-Apr-21 23:26N 37°26' E 024°07'6 9.2
2017-Apr-21 22:50N 37°23' E 024°12'436 9.9
2017-Apr-20 02:38N 34°39' E 032°31'110.4
2017-Apr-20 02:30N 34°39' E 032°33'510.4
2017-Apr-20 02:00N 34°37' E 032°39'510.5
2017-Apr-20 01:30N 34°35' E 032°44'510.6
2017-Apr-20 01:00N 34°33' E 032°50'510.2
2017-Apr-20 00:29N 34°31' E 032°56'510.3
2017-Apr-20 00:00N 34°31' E 033°02'510.8
2017-Apr-19 23:30N 34°33' E 033°08'510.5
2017-Apr-19 23:00N 34°35' E 033°14'510.8
2017-Apr-19 22:30N 34°37' E 033°20'24 2.3
2017-Apr-19 12:03N 34°56' E 033°39'0 0.0
2017-Apr-19 11:54N 34°56' E 033°39'0 0.0
2017-Apr-19 11:21N 34°56' E 033°39'1 0.0
2017-Apr-17 18:21N 34°56' E 033°40'29 1.0
2017-Apr-16 14:00N 34°36' E 033°15'611.5
2017-Apr-16 13:30N 34°34' E 033°09'611.7
2017-Apr-16 13:00N 34°31' E 033°03'611.4
2017-Apr-16 12:30N 34°31' E 032°56'611.0
2017-Apr-16 12:00N 34°33' E 032°49'611.0
2017-Apr-16 11:30N 34°35' E 032°43'611.1
2017-Apr-16 11:00N 34°37' E 032°37'  
Track history (hours):
 
Tides and Currents Weather Stations Pressure Air Temp Water Temp Dewpoint Dewpoint Depression Visibility Wind Speed Wind Dir Waves Ship Positions

Irini

Last reported at 2017-Apr-25 04:53 UTC. Time now 2017-Apr-25 16:32 UTC.
Position N 39°29' E 023°23'.

Length 137 m; draft 7.2 m.

Type: Ship (hazmat cat A). MMSI: 240052000.

Date/timePositionNaut miles runAvg speedWind from/ knotsBaromVisibWave heightAir tempDewpointWater temp
2017-Apr-25 04:53N 39°29' E 023°23'5110.4
2017-Apr-25 00:02N 38°50' E 024°04'58 9.6
2017-Apr-24 17:58N 37°57' E 024°35'5 9.7
2017-Apr-24 17:29N 37°53' E 024°31'5 9.8
2017-Apr-24 17:00N 37°50' E 024°27'5 9.8
2017-Apr-24 16:30N 37°47' E 024°22'5 9.7
2017-Apr-24 15:59N 37°43' E 024°17'9 9.8
2017-Apr-24 15:03N 37°38' E 024°08'4 9.1
2017-Apr-24 14:36N 37°36' E 024°03'1 9.7
2017-Apr-24 14:29N 37°36' E 024°02'9 9.6
2017-Apr-24 13:30N 37°38' E 023°50'510.3
2017-Apr-24 13:00N 37°40' E 023°44'510.3
2017-Apr-24 12:30N 37°44' E 023°40'510.3
2017-Apr-24 12:00N 37°49' E 023°38'510.2
2017-Apr-24 11:30N 37°54' E 023°37'4 7.4
2017-Apr-24 11:00N 37°57' E 023°35'4 7.2
2017-Apr-24 10:30N 38°01' E 023°34'1 2.3
2017-Apr-24 10:00N 38°01' E 023°34'2 4.6
2017-Apr-24 09:30N 38°01' E 023°32'0 0.0
2017-Apr-24 08:59N 38°01' E 023°32'0 0.0
2017-Apr-24 08:29N 38°01' E 023°32'0 0.1
2017-Apr-24 07:59N 38°01' E 023°32'0 0.1
2017-Apr-24 07:29N 38°01' E 023°32'0 0.0
2017-Apr-24 06:59N 38°01' E 023°32'0 0.1
2017-Apr-24 06:29N 38°01' E 023°32'0 0.0
2017-Apr-24 05:59N 38°01' E 023°32'0 0.1
2017-Apr-24 05:26N 38°01' E 023°32'0 0.1
2017-Apr-24 04:59N 38°01' E 023°32'0 0.0
2017-Apr-24 04:29N 38°01' E 023°32'0 0.1
2017-Apr-24 03:59N 38°01' E 023°32'0 0.1
2017-Apr-24 03:29N 38°01' E 023°32'0 0.0
2017-Apr-24 02:59N 38°01' E 023°32'0 0.1
2017-Apr-24 02:29N 38°01' E 023°32'0 0.0
2017-Apr-24 01:59N 38°01' E 023°32'0 0.1
2017-Apr-24 01:29N 38°01' E 023°32'0 0.0
2017-Apr-24 00:59N 38°01' E 023°32'0 0.1
2017-Apr-24 00:23N 38°01' E 023°32'0 0.1
2017-Apr-23 23:59N 38°01' E 023°32'0 0.0
2017-Apr-23 23:29N 38°01' E 023°32'0 0.0
2017-Apr-23 22:59N 38°01' E 023°32'0 0.3
2017-Apr-23 22:30N 38°01' E 023°32'1 2.4
2017-Apr-23 22:00N 38°02' E 023°30'0 0.5
2017-Apr-23 21:26N 38°02' E 023°31'0 0.0
2017-Apr-23 20:59N 38°02' E 023°31'0 0.0
2017-Apr-23 20:29N 38°02' E 023°31'0 0.0
2017-Apr-23 19:59N 38°02' E 023°31'0 0.0
2017-Apr-23 19:29N 38°02' E 023°31'0 0.0
2017-Apr-23 18:59N 38°02' E 023°31'0 0.0
2017-Apr-23 18:26N 38°02' E 023°31'0 0.0
2017-Apr-23 17:59N 38°02' E 023°31'0 0.0
2017-Apr-23 17:29N 38°02' E 023°31'0 0.0
2017-Apr-23 16:59N 38°02' E 023°31'0 0.0
2017-Apr-23 16:29N 38°02' E 023°31'0 0.0
2017-Apr-23 15:59N 38°02' E 023°31'0 0.0
2017-Apr-23 15:29N 38°02' E 023°31'0 0.0
2017-Apr-23 14:56N 38°02' E 023°31'0 0.0
2017-Apr-23 13:53N 38°02' E 023°31'0 0.0
2017-Apr-23 13:29N 38°02' E 023°31'0 0.0
2017-Apr-23 12:59N 38°02' E 023°31'0 0.0
2017-Apr-23 12:29N 38°02' E 023°31'0 0.0
2017-Apr-23 11:59N 38°02' E 023°31'0 0.0
2017-Apr-23 11:29N 38°02' E 023°31'0 0.0
2017-Apr-23 10:59N 38°02' E 023°31'0 0.0
2017-Apr-23 10:29N 38°02' E 023°31'0 0.0
2017-Apr-23 09:53N 38°02' E 023°31'0 0.0
2017-Apr-23 09:29N 38°02' E 023°31'0 0.0
2017-Apr-23 08:59N 38°02' E 023°31'0 0.0
2017-Apr-23 08:29N 38°02' E 023°31'0 0.0
2017-Apr-23 07:59N 38°02' E 023°31'0 0.0
2017-Apr-23 07:29N 38°02' E 023°31'0 0.0
2017-Apr-23 06:59N 38°02' E 023°31'0 0.0
2017-Apr-23 06:29N 38°02' E 023°31'0 0.0
2017-Apr-23 05:59N 38°02' E 023°31'0 0.0
2017-Apr-23 05:29N 38°02' E 023°31'0 0.0
2017-Apr-23 04:59N 38°02' E 023°31'0 0.0
2017-Apr-23 04:26N 38°02' E 023°31'0 0.0
2017-Apr-23 03:59N 38°02' E 023°31'0 0.0
2017-Apr-23 03:29N 38°02' E 023°31'0 0.0
2017-Apr-23 02:56N 38°02' E 023°31'0 0.0
2017-Apr-23 02:29N 38°02' E 023°31'0 0.0
2017-Apr-23 01:59N 38°02' E 023°31'0 0.0
2017-Apr-23 01:29N 38°02' E 023°31'0 0.0
2017-Apr-23 00:53N 38°02' E 023°31'0 0.0
2017-Apr-23 00:29N 38°02' E 023°31'0 0.0
2017-Apr-22 23:56N 38°02' E 023°31'0 0.0
2017-Apr-22 23:29N 38°02' E 023°31'0 0.0
2017-Apr-22 22:59N 38°02' E 023°31'0 0.0
2017-Apr-22 22:29N 38°02' E 023°31'0 0.0
2017-Apr-22 21:59N 38°02' E 023°31'0 0.0
2017-Apr-22 21:29N 38°02' E 023°31'0 0.0
2017-Apr-22 20:59N 38°02' E 023°31'0 0.0
2017-Apr-22 20:29N 38°02' E 023°31'0 0.0
2017-Apr-22 19:59N 38°02' E 023°31'0 0.0
2017-Apr-22 19:29N 38°02' E 023°31'0 0.0
2017-Apr-22 18:59N 38°02' E 023°31'0 0.0
2017-Apr-22 18:29N 38°02' E 023°31'0 0.0
2017-Apr-22 17:59N 38°02' E 023°31'0 0.0
2017-Apr-22 17:29N 38°02' E 023°31'0 0.0
2017-Apr-22 16:59N 38°02' E 023°31'0 0.0
2017-Apr-22 16:29N 38°02' E 023°31'0 0.0
2017-Apr-22 15:59N 38°02' E 023°31'0 0.0
2017-Apr-22 15:29N 38°02' E 023°31'0 0.0
2017-Apr-22 14:56N 38°02' E 023°31'0 0.0
2017-Apr-22 14:29N 38°02' E 023°31'0 0.0
2017-Apr-22 13:29N 38°02' E 023°31'0 0.0
2017-Apr-22 12:56N 38°02' E 023°31'0 0.0
2017-Apr-22 12:29N 38°02' E 023°31'0 0.0
2017-Apr-22 11:59N 38°02' E 023°31'0 0.0
2017-Apr-22 11:29N 38°02' E 023°31'0 0.0
2017-Apr-22 10:59N 38°02' E 023°31'0 0.0
2017-Apr-22 10:29N 38°02' E 023°31'0 0.0
2017-Apr-22 09:59N 38°02' E 023°31'1 1.1
2017-Apr-22 09:30N 38°02' E 023°31'1 2.8
2017-Apr-22 09:00N 38°01' E 023°32'4 8.2
2017-Apr-22 08:31N 37°57' E 023°34'3 6.6
2017-Apr-22 08:01N 37°54' E 023°35'0 0.8
2017-Apr-22 07:30N 37°54' E 023°35'0 0.9
2017-Apr-22 07:00N 37°53' E 023°35'0 0.2
2017-Apr-22 06:30N 37°53' E 023°35'0 0.8
2017-Apr-22 06:00N 37°54' E 023°35'1 1.4
2017-Apr-22 05:30N 37°53' E 023°35'0 0.4
2017-Apr-22 05:00N 37°53' E 023°35'1 1.7
2017-Apr-22 04:30N 37°52' E 023°35'0 0.8
2017-Apr-22 04:00N 37°52' E 023°35'1 1.8
2017-Apr-22 03:30N 37°52' E 023°36'4 8.3
2017-Apr-22 03:00N 37°49' E 023°40'4 8.5
2017-Apr-22 02:30N 37°45' E 023°42'4 8.8
2017-Apr-22 02:00N 37°41' E 023°45'4 8.5
2017-Apr-22 01:30N 37°38' E 023°49'4 9.0
2017-Apr-22 01:00N 37°35' E 023°53'4 8.8
2017-Apr-22 00:30N 37°32' E 023°57'4 8.7
2017-Apr-22 00:00N 37°30' E 024°02'5 8.9
2017-Apr-21 23:26N 37°26' E 024°07'6 9.2
2017-Apr-21 22:50N 37°23' E 024°12'436 9.9
2017-Apr-20 02:38N 34°39' E 032°31'110.4
2017-Apr-20 02:30N 34°39' E 032°33'510.4
2017-Apr-20 02:00N 34°37' E 032°39'510.5
2017-Apr-20 01:30N 34°35' E 032°44'510.6
2017-Apr-20 01:00N 34°33' E 032°50'510.2
2017-Apr-20 00:29N 34°31' E 032°56'510.3
2017-Apr-20 00:00N 34°31' E 033°02'510.8
2017-Apr-19 23:30N 34°33' E 033°08'510.5
2017-Apr-19 23:00N 34°35' E 033°14'510.8
2017-Apr-19 22:30N 34°37' E 033°20'24 2.3
2017-Apr-19 12:03N 34°56' E 033°39'0 0.0
2017-Apr-19 11:54N 34°56' E 033°39'0 0.0
2017-Apr-19 11:21N 34°56' E 033°39'1 0.0
2017-Apr-17 18:21N 34°56' E 033°40'29 1.0
2017-Apr-16 14:00N 34°36' E 033°15'611.5
2017-Apr-16 13:30N 34°34' E 033°09'611.7
2017-Apr-16 13:00N 34°31' E 033°03'611.4
2017-Apr-16 12:30N 34°31' E 032°56'611.0
2017-Apr-16 12:00N 34°33' E 032°49'611.0
2017-Apr-16 11:30N 34°35' E 032°43'611.1
2017-Apr-16 11:00N 34°37' E 032°37'  

Dump ship's entire track history